Terminal Aerodrome Forecast
Issued by NWS Norman, OK

Home | Current Version | Previous Version | Text Only | Print | Product List | Glossary On
Versions: 1 2 3 4 5 6 7 8 9 10 11 12 13 14 15 16 17 18 19 20 21 22 23 24 25
000
FTUS44 KOUN 032333
TAFSPS
TAF
KSPS 032333Z 0400/0424 16013KT P6SM SCT250
     FM041100 18014G21KT P6SM SCT008 BKN015
     FM041800 16016G26KT P6SM BKN040=

USA.gov is the U.S. government's official web portal to all federal, state and local government web resources and services.